Time;durP1;ratioP1;P1;durP2;ratioP2;P2;SDS_P1;SDS_P2;PMS_P1;PMS_P2;Temp;Humidity;BMP_temperature;BMP_pressure;BME280_temperature;BME280_humidity;BME280_pressure;Samples;Min_cycle;Max_cycle;Signal;HPM_P1;HPM_P2
2022/05/04 00:01:36;;;;;;;3.40;2.77;;;6.10;99.90;;;;;;5001580;28;20241;-60
2022/05/04 00:04:03;;;;;;;7.57;3.30;;;6.10;99.90;;;;;;5009970;28;20214;-60
2022/05/04 00:06:30;;;;;;;9.07;2.73;;;6.10;99.90;;;;;;5001815;28;20233;-61
2022/05/04 00:08:57;;;;;;;6.73;3.10;;;6.10;99.90;;;;;;5027421;28;20222;-60
2022/05/04 00:11:26;;;;;;;5.90;3.33;;;6.00;99.90;;;;;;5023533;28;20607;-60
2022/05/04 00:13:52;;;;;;;7.83;3.70;;;6.00;99.90;;;;;;5024862;28;20267;-60
2022/05/04 00:16:19;;;;;;;8.13;2.93;;;6.00;99.90;;;;;;5007479;28;20307;-60
2022/05/04 00:18:46;;;;;;;11.50;3.63;;;6.00;99.90;;;;;;5029306;28;20356;-60
2022/05/04 00:21:13;;;;;;;8.10;3.07;;;6.00;99.90;;;;;;5014834;28;20200;-60
2022/05/04 00:23:40;;;;;;;5.30;2.83;;;6.00;99.90;;;;;;5009303;28;20210;-60
2022/05/04 00:26:07;;;;;;;6.13;2.83;;;6.00;99.90;;;;;;5027631;28;20227;-60
2022/05/04 00:28:35;;;;;;;6.83;2.83;;;6.00;99.90;;;;;;5024880;28;20203;-60
2022/05/04 00:31:02;;;;;;;7.17;2.73;;;6.00;99.90;;;;;;5026148;28;20214;-60
2022/05/04 00:33:29;;;;;;;8.93;2.77;;;6.00;99.90;;;;;;5000393;28;20237;-60
2022/05/04 00:35:56;;;;;;;11.77;3.17;;;6.00;99.90;;;;;;5018500;28;20339;-60
2022/05/04 00:38:23;;;;;;;11.60;2.90;;;6.00;99.90;;;;;;5012712;28;20562;-60
2022/05/04 00:40:50;;;;;;;8.43;2.50;;;6.00;99.90;;;;;;5006111;28;20300;-59
2022/05/04 00:43:21;;;;;;;6.57;2.57;;;6.00;99.90;;;;;;5031069;28;20985;-60
2022/05/04 00:45:50;;;;;;;12.70;2.77;;;5.80;99.90;;;;;;5017162;28;20203;-60
2022/05/04 00:48:17;;;;;;;4.40;2.27;;;5.80;99.90;;;;;;5015436;28;20238;-60
2022/05/04 00:50:45;;;;;;;3.90;2.47;;;5.80;99.90;;;;;;5012158;28;20231;-59
2022/05/04 00:53:13;;;;;;;8.83;2.60;;;5.90;99.90;;;;;;5027432;28;20204;-60
2022/05/04 00:55:40;;;;;;;9.50;2.93;;;5.90;99.90;;;;;;5005416;28;20207;-60
2022/05/04 01:00:55;;;;;;;3.53;2.33;;;5.80;99.90;;;;;;5008961;28;20212;-59
2022/05/04 01:03:22;;;;;;;6.00;2.63;;;5.70;99.90;;;;;;5014732;28;20968;-59
2022/05/04 01:05:49;;;;;;;4.57;2.30;;;5.60;99.90;;;;;;5018119;28;20206;-60
2022/05/04 01:08:18;;;;;;;4.83;2.57;;;5.70;99.90;;;;;;5025489;28;20200;-60
2022/05/04 01:10:44;;;;;;;5.47;2.50;;;5.60;99.90;;;;;;4999471;28;20229;-60
2022/05/04 01:13:11;;;;;;;7.17;2.10;;;5.60;99.90;;;;;;5024077;28;20213;-60
2022/05/04 01:15:38;;;;;;;7.23;2.40;;;5.70;99.90;;;;;;5028034;28;20206;-59
2022/05/04 01:18:07;;;;;;;3.93;2.27;;;5.80;99.90;;;;;;5007766;28;20299;-60
2022/05/04 01:20:34;;;;;;;5.57;2.30;;;5.90;99.90;;;;;;5014588;28;20213;-60
2022/05/04 01:23:02;;;;;;;7.07;3.20;;;5.90;99.90;;;;;;5022847;28;20199;-60
2022/05/04 01:25:29;;;;;;;5.83;2.70;;;6.00;99.90;;;;;;5008392;28;20209;-60
2022/05/04 01:27:57;;;;;;;7.43;2.40;;;6.00;99.90;;;;;;5026270;28;20202;-60
2022/05/04 01:30:24;;;;;;;10.83;3.37;;;6.10;99.90;;;;;;5022626;28;20682;-59
2022/05/04 01:32:51;;;;;;;4.50;2.33;;;6.00;99.90;;;;;;5007015;28;20201;-59
2022/05/04 01:35:18;;;;;;;7.03;2.50;;;6.10;99.90;;;;;;5017486;28;20344;-60
2022/05/04 01:37:45;;;;;;;4.43;2.63;;;6.10;99.90;;;;;;5028624;28;20198;-59
2022/05/04 01:40:13;;;;;;;5.43;3.03;;;6.10;99.90;;;;;;5008485;28;20859;-59
2022/05/04 01:42:40;;;;;;;7.77;2.80;;;6.20;99.90;;;;;;5025408;28;20226;-60
2022/05/04 01:45:09;;;;;;;8.10;2.97;;;6.10;99.90;;;;;;5026517;28;20200;-62
2022/05/04 01:47:36;;;;;;;7.07;2.80;;;6.20;99.90;;;;;;4990348;28;20284;-63
2022/05/04 01:50:03;;;;;;;6.30;2.77;;;6.10;99.90;;;;;;5020584;28;21050;-59
2022/05/04 01:52:30;;;;;;;8.03;2.83;;;6.20;99.90;;;;;;4997359;28;20216;-59
2022/05/04 01:55:00;;;;;;;3.60;2.30;;;6.30;99.90;;;;;;5026264;28;20278;-60
2022/05/04 01:57:28;;;;;;;7.27;2.67;;;6.30;99.90;;;;;;5008904;28;20215;-60
2022/05/04 01:59:55;;;;;;;5.10;2.70;;;6.40;99.90;;;;;;5016543;28;20227;-60
2022/05/04 02:02:22;;;;;;;7.00;2.70;;;6.30;99.90;;;;;;5015264;28;21157;-60
2022/05/04 02:04:50;;;;;;;4.13;2.30;;;6.40;99.90;;;;;;5008222;28;20222;-60
2022/05/04 02:07:17;;;;;;;10.00;3.17;;;6.40;99.90;;;;;;5004748;28;20609;-60
2022/05/04 02:09:44;;;;;;;7.67;2.70;;;6.50;99.90;;;;;;5023700;28;20720;-60
2022/05/04 02:12:11;;;;;;;9.50;2.60;;;6.50;99.90;;;;;;4990663;28;20221;-59
2022/05/04 02:14:40;;;;;;;7.30;2.63;;;6.50;99.90;;;;;;5024563;28;20199;-60
2022/05/04 02:17:07;;;;;;;7.57;2.90;;;6.50;99.90;;;;;;5013657;28;20207;-60
2022/05/04 02:19:34;;;;;;;5.80;2.73;;;6.50;99.90;;;;;;5018715;28;21283;-59
2022/05/04 02:22:02;;;;;;;9.00;3.33;;;6.50;99.90;;;;;;5000982;28;21336;-60
2022/05/04 02:24:29;;;;;;;4.57;2.80;;;6.60;99.90;;;;;;5025545;28;20223;-59
2022/05/04 02:26:56;;;;;;;8.67;3.10;;;6.60;99.90;;;;;;5009327;28;20217;-60
2022/05/04 02:29:23;;;;;;;8.37;2.87;;;6.60;99.90;;;;;;5027074;28;20326;-60
2022/05/04 02:31:52;;;;;;;6.93;2.70;;;6.50;99.90;;;;;;5025759;28;20215;-60
2022/05/04 02:34:19;;;;;;;7.93;3.13;;;6.60;99.90;;;;;;5011644;28;20207;-59
2022/05/04 02:39:30;;;;;;;6.30;2.77;;;6.60;99.90;;;;;;5027646;28;20224;-60
2022/05/04 02:41:57;;;;;;;8.43;3.03;;;6.60;99.90;;;;;;5026931;28;20204;-60
2022/05/04 02:44:24;;;;;;;6.80;2.97;;;6.60;99.90;;;;;;5002902;28;20598;-59
2022/05/04 02:46:53;;;;;;;5.47;2.70;;;6.60;99.90;;;;;;5027104;28;20199;-61
2022/05/04 02:49:20;;;;;;;5.13;2.87;;;6.50;99.90;;;;;;5016633;28;20210;-59
2022/05/04 02:51:47;;;;;;;10.90;3.23;;;6.40;99.90;;;;;;5009224;28;20216;-59
2022/05/04 02:54:14;;;;;;;14.93;2.77;;;6.40;99.90;;;;;;5014464;28;20215;-59
2022/05/04 02:56:41;;;;;;;3.97;2.30;;;6.30;99.90;;;;;;5021763;28;20202;-60
2022/05/04 02:59:08;;;;;;;5.60;2.40;;;6.20;99.90;;;;;;5008620;28;20702;-60
2022/05/04 03:04:21;;;;;;;4.93;2.27;;;6.10;99.90;;;;;;5014045;28;21081;-60
2022/05/04 03:06:48;;;;;;;8.40;2.60;;;6.20;99.90;;;;;;5018018;28;20201;-59
2022/05/04 03:09:15;;;;;;;9.27;2.33;;;6.20;99.90;;;;;;5002377;28;20220;-59
2022/05/04 03:11:56;;;;;;;9.10;2.33;;;6.30;99.90;;;;;;5018156;28;20208;-60
2022/05/04 03:14:25;;;;;;;7.10;2.80;;;6.40;99.90;;;;;;5007043;28;20211;-60
2022/05/04 03:16:52;;;;;;;4.90;2.57;;;6.40;99.90;;;;;;5001921;28;20202;-61
2022/05/04 03:19:21;;;;;;;11.17;2.40;;;6.50;99.90;;;;;;4992119;28;20291;-60
2022/05/04 03:21:48;;;;;;;11.13;2.60;;;6.50;99.90;;;;;;5010566;28;20202;-60
2022/05/04 03:24:15;;;;;;;10.17;2.30;;;6.70;99.90;;;;;;5004543;28;20782;-60
2022/05/04 03:26:42;;;;;;;7.53;1.80;;;6.70;99.90;;;;;;5023147;28;20675;-59
2022/05/04 03:29:10;;;;;;;10.33;2.07;;;6.70;99.90;;;;;;5019574;28;20198;-60
2022/05/04 03:31:37;;;;;;;6.20;1.83;;;6.80;99.90;;;;;;5005969;28;20263;-59
2022/05/04 03:34:04;;;;;;;3.70;1.93;;;6.90;99.90;;;;;;5010404;28;20204;-60
2022/05/04 03:36:35;;;;;;;7.97;2.17;;;6.90;99.90;;;;;;4999438;28;20209;-60
2022/05/04 03:39:02;;;;;;;4.13;2.10;;;6.90;99.90;;;;;;5019247;28;20236;-60
2022/05/04 03:41:29;;;;;;;5.50;2.03;;;6.90;99.90;;;;;;5020713;28;20208;-59
2022/05/04 03:43:56;;;;;;;7.83;2.13;;;7.00;99.90;;;;;;5020994;28;20195;-59
2022/05/04 03:46:25;;;;;;;7.90;2.20;;;7.00;99.90;;;;;;5003527;28;20216;-59
2022/05/04 03:48:53;;;;;;;8.10;2.27;;;7.10;99.90;;;;;;5005611;28;21019;-60
2022/05/04 03:51:20;;;;;;;7.33;2.23;;;7.10;99.90;;;;;;5004053;28;20234;-60
2022/05/04 03:53:49;;;;;;;9.63;2.40;;;7.00;99.90;;;;;;5009913;28;20299;-60
2022/05/04 03:56:16;;;;;;;4.33;2.30;;;7.10;99.90;;;;;;5028856;28;20199;-60
2022/05/04 03:58:43;;;;;;;6.83;2.60;;;7.10;99.90;;;;;;5018345;28;21319;-60
2022/05/04 04:01:11;;;;;;;4.37;2.33;;;7.10;99.90;;;;;;4999028;28;20306;-60
2022/05/04 04:03:38;;;;;;;6.87;2.23;;;7.10;99.90;;;;;;5007073;28;21670;-60
2022/05/04 04:06:06;;;;;;;5.00;1.87;;;7.10;99.90;;;;;;5014727;28;21156;-59
2022/05/04 04:08:33;;;;;;;9.90;2.43;;;7.20;99.90;;;;;;5002343;28;20318;-60
2022/05/04 04:11:01;;;;;;;9.70;2.10;;;7.10;99.90;;;;;;5014289;28;20273;-59
2022/05/04 04:13:28;;;;;;;5.87;2.10;;;7.10;99.90;;;;;;5012606;28;20213;-59
2022/05/04 04:15:55;;;;;;;7.03;2.10;;;7.20;99.90;;;;;;5006537;28;20728;-60
2022/05/04 04:18:24;;;;;;;5.13;1.77;;;7.20;99.90;;;;;;5008999;28;20673;-60
2022/05/04 04:23:40;;;;;;;7.43;2.30;;;7.20;99.90;;;;;;5016560;28;20352;-60
2022/05/04 04:26:10;;;;;;;2.83;1.67;;;7.20;99.90;;;;;;4999165;28;20203;-60
2022/05/04 04:28:39;;;;;;;3.27;1.77;;;7.30;99.90;;;;;;5024170;28;20857;-60
2022/05/04 04:31:08;;;;;;;6.10;2.00;;;7.20;99.90;;;;;;5014120;28;20238;-60
2022/05/04 04:33:36;;;;;;;5.57;1.73;;;7.20;99.90;;;;;;5033036;28;20211;-60
2022/05/04 04:36:03;;;;;;;5.90;2.50;;;7.20;99.90;;;;;;5022070;28;20893;-60
2022/05/04 04:38:30;;;;;;;6.00;1.97;;;7.20;99.90;;;;;;5000523;28;20240;-60
2022/05/04 04:40:57;;;;;;;6.57;2.20;;;7.10;99.90;;;;;;5011652;28;20707;-60
2022/05/04 04:43:26;;;;;;;6.00;2.57;;;7.10;99.90;;;;;;5005421;28;20317;-61
2022/05/04 04:45:53;;;;;;;3.90;2.30;;;7.20;99.90;;;;;;5005659;28;20202;-61
2022/05/04 04:48:21;;;;;;;3.40;1.80;;;7.20;99.90;;;;;;5020635;28;20600;-60
2022/05/04 04:50:48;;;;;;;5.60;2.30;;;7.20;99.90;;;;;;5016045;28;20293;-61
2022/05/04 04:53:16;;;;;;;5.60;2.27;;;7.10;99.90;;;;;;5012966;28;20270;-61
2022/05/04 04:55:45;;;;;;;9.63;2.37;;;7.20;99.90;;;;;;5018820;28;20328;-60
2022/05/04 04:58:12;;;;;;;7.70;2.10;;;7.20;99.90;;;;;;5007403;28;20224;-61
2022/05/04 05:00:41;;;;;;;5.77;2.17;;;7.20;99.90;;;;;;5011211;28;20197;-60
2022/05/04 05:03:08;;;;;;;3.80;2.20;;;7.20;99.90;;;;;;5019976;28;20269;-61
2022/05/04 05:05:35;;;;;;;4.73;2.00;;;7.20;99.90;;;;;;5044930;28;20300;-61
2022/05/04 05:08:02;;;;;;;14.23;2.53;;;7.30;99.90;;;;;;5021621;28;20278;-61
2022/05/04 05:10:29;;;;;;;7.13;2.00;;;7.20;99.90;;;;;;4986011;28;20252;-61
2022/05/04 05:12:56;;;;;;;15.73;2.60;;;7.30;99.90;;;;;;5002227;28;20904;-61
2022/05/04 05:18:09;;;;;;;19.27;3.47;;;7.40;99.90;;;;;;4983880;28;20721;-61
2022/05/04 05:20:36;;;;;;;8.97;3.30;;;7.50;99.90;;;;;;5019108;28;20239;-61
2022/05/04 05:23:04;;;;;;;10.00;2.43;;;7.50;99.90;;;;;;5025864;28;20197;-62
2022/05/04 05:25:32;;;;;;;13.13;2.17;;;7.60;99.90;;;;;;5006847;28;20216;-62
2022/05/04 05:27:59;;;;;;;7.00;2.00;;;7.60;99.90;;;;;;5025122;28;20250;-61
2022/05/04 05:30:26;;;;;;;4.77;2.27;;;7.60;99.90;;;;;;5012072;28;20604;-61
2022/05/04 05:32:53;;;;;;;4.80;2.23;;;7.50;99.90;;;;;;5010532;28;20219;-61
2022/05/04 05:35:21;;;;;;;10.23;2.40;;;7.60;99.90;;;;;;5025188;28;20196;-61
2022/05/04 05:37:48;;;;;;;10.60;2.30;;;7.70;99.90;;;;;;5025593;28;20225;-61
2022/05/04 05:40:15;;;;;;;10.10;2.13;;;7.70;99.90;;;;;;5020838;28;20201;-61
2022/05/04 05:42:42;;;;;;;11.30;2.77;;;7.70;99.90;;;;;;5012498;28;20213;-61
2022/05/04 05:45:10;;;;;;;13.17;2.33;;;7.70;99.90;;;;;;5026528;28;20221;-61
2022/05/04 05:47:38;;;;;;;5.27;2.10;;;7.80;99.90;;;;;;4987711;28;20645;-61
2022/05/04 05:50:06;;;;;;;6.97;2.23;;;7.80;99.90;;;;;;5026681;28;20206;-61
2022/05/04 05:52:34;;;;;;;8.40;2.27;;;7.90;99.90;;;;;;5025027;28;20194;-61
2022/05/04 05:55:01;;;;;;;4.83;1.97;;;8.00;99.90;;;;;;5026857;28;20197;-61
2022/05/04 05:57:28;;;;;;;9.87;2.43;;;7.90;99.90;;;;;;5002985;28;20193;-61
2022/05/04 05:59:55;;;;;;;3.73;1.47;;;8.00;99.90;;;;;;5026062;28;20275;-61
2022/05/04 06:02:27;;;;;;;5.27;2.20;;;8.10;99.90;;;;;;5024930;28;20296;-62
2022/05/04 06:04:54;;;;;;;4.90;1.87;;;8.10;99.90;;;;;;5009238;28;20220;-61
2022/05/04 06:07:20;;;;;;;4.67;1.83;;;8.10;99.90;;;;;;5025783;28;21046;-61
2022/05/04 06:09:49;;;;;;;6.63;2.17;;;8.10;99.90;;;;;;5030499;28;20197;-61
2022/05/04 06:12:15;;;;;;;10.73;2.37;;;8.20;99.90;;;;;;5021840;28;20809;-61
2022/05/04 06:14:42;;;;;;;4.70;1.77;;;8.20;99.90;;;;;;5028797;28;20300;-61
2022/05/04 06:17:09;;;;;;;3.73;1.87;;;8.20;99.90;;;;;;5029228;28;20888;-61
2022/05/04 06:19:36;;;;;;;5.50;1.57;;;8.20;99.90;;;;;;5011283;28;20216;-61
2022/05/04 06:22:03;;;;;;;12.20;1.97;;;8.20;99.90;;;;;;5033339;28;20205;-61
2022/05/04 06:24:30;;;;;;;3.60;1.57;;;8.30;99.90;;;;;;5027694;28;20311;-62
2022/05/04 06:26:58;;;;;;;10.50;2.17;;;8.30;99.90;;;;;;5026215;28;20214;-61
2022/05/04 06:34:06;;;;;;;9.43;1.93;;;8.30;99.90;;;;;;5028179;28;20213;-61
2022/05/04 06:34:56;;;;;;;7.50;2.33;;;8.30;99.90;;;;;;5014666;28;20244;-61
2022/05/04 06:37:23;;;;;;;6.50;1.53;;;8.40;99.90;;;;;;5028291;28;20198;-61
2022/05/04 06:39:50;;;;;;;3.20;1.70;;;8.50;99.90;;;;;;5023989;28;20215;-61
2022/05/04 06:42:18;;;;;;;5.03;1.57;;;8.50;99.90;;;;;;5025529;28;20754;-61
2022/05/04 06:44:45;;;;;;;5.13;1.93;;;8.50;99.90;;;;;;5022690;28;20758;-61
2022/05/04 06:47:12;;;;;;;14.07;2.87;;;8.60;99.90;;;;;;5012565;28;20208;-61
2022/05/04 06:49:39;;;;;;;5.83;1.70;;;8.60;99.90;;;;;;5025151;28;20206;-61
2022/05/04 06:52:07;;;;;;;3.23;1.70;;;8.70;99.90;;;;;;5003746;28;20930;-61
2022/05/04 06:54:34;;;;;;;3.80;1.90;;;8.70;99.90;;;;;;5026306;28;20210;-60
2022/05/04 06:57:00;;;;;;;5.90;1.87;;;8.70;99.90;;;;;;5028114;28;20212;-61
2022/05/04 06:59:29;;;;;;;3.70;1.63;;;8.80;99.90;;;;;;5020086;28;20205;-61
2022/05/04 07:01:56;;;;;;;4.30;1.77;;;8.90;99.90;;;;;;5026006;28;20201;-61
2022/05/04 07:04:23;;;;;;;5.40;1.57;;;8.90;99.90;;;;;;5027704;28;20201;-61
2022/05/04 07:06:50;;;;;;;4.37;1.73;;;8.90;99.90;;;;;;4998664;28;20217;-61
2022/05/04 07:09:18;;;;;;;7.03;1.70;;;9.00;99.90;;;;;;5018346;28;21615;-61
2022/05/04 07:11:45;;;;;;;5.13;1.93;;;9.10;99.90;;;;;;5028138;28;20323;-61
2022/05/04 07:14:12;;;;;;;4.23;1.73;;;9.10;99.90;;;;;;5019804;28;20864;-60
2022/05/04 07:16:41;;;;;;;5.90;1.90;;;9.20;99.90;;;;;;5027041;28;20198;-60
2022/05/04 07:19:08;;;;;;;6.93;2.40;;;9.40;99.90;;;;;;5028283;28;20201;-63
2022/05/04 07:21:34;;;;;;;5.63;2.13;;;9.50;99.90;;;;;;5007665;28;21072;-61
2022/05/04 07:24:02;;;;;;;4.23;2.03;;;9.50;99.90;;;;;;5031718;28;20209;-62
2022/05/04 07:26:29;;;;;;;4.73;1.90;;;9.50;99.90;;;;;;5027825;28;20198;-60
2022/05/04 07:28:56;;;;;;;10.10;1.70;;;9.60;99.90;;;;;;5031887;28;20197;-61
2022/05/04 07:31:23;;;;;;;6.50;2.07;;;9.50;99.90;;;;;;5024262;28;20221;-60
2022/05/04 07:33:51;;;;;;;7.53;1.77;;;9.50;99.90;;;;;;5034177;28;20190;-61
2022/05/04 07:36:18;;;;;;;4.67;2.53;;;9.50;99.90;;;;;;5029383;28;20209;-61
2022/05/04 07:38:45;;;;;;;3.93;1.80;;;9.50;99.90;;;;;;5019052;28;20248;-60
2022/05/04 07:43:56;;;;;;;6.17;1.93;;;9.60;99.90;;;;;;5019513;28;20244;-61
2022/05/04 07:46:23;;;;;;;3.77;2.07;;;9.60;99.90;;;;;;5023836;28;20198;-61
2022/05/04 07:48:52;;;;;;;6.10;2.10;;;9.70;99.90;;;;;;5012315;28;20320;-61
2022/05/04 07:51:19;;;;;;;3.87;1.97;;;9.70;99.90;;;;;;5025308;28;20333;-61
2022/05/04 07:53:46;;;;;;;8.17;2.10;;;9.60;99.90;;;;;;5000513;28;20295;-61
2022/05/04 07:56:13;;;;;;;6.97;1.90;;;9.50;99.90;;;;;;5030985;28;20281;-61
2022/05/04 07:58:40;;;;;;;3.90;2.00;;;9.60;99.90;;;;;;5034466;28;20205;-61
2022/05/04 08:06:36;;;;;;;5.03;2.23;;;9.70;99.90;;;;;;5034320;28;20243;-61
2022/05/04 08:09:03;;;;;;;11.67;2.70;;;9.80;99.90;;;;;;4999122;28;20835;-61
2022/05/04 08:11:30;;;;;;;3.90;1.63;;;9.90;99.90;;;;;;5032690;28;20233;-61
2022/05/04 08:13:57;;;;;;;11.73;2.47;;;9.90;99.90;;;;;;5019507;28;20217;-61
2022/05/04 08:16:24;;;;;;;12.73;2.80;;;10.00;99.90;;;;;;5023348;28;20289;-61
2022/05/04 08:18:52;;;;;;;6.17;1.90;;;9.90;99.90;;;;;;5023311;28;20214;-61
2022/05/04 08:21:19;;;;;;;6.47;2.30;;;10.00;99.90;;;;;;5026844;28;20221;-61
2022/05/04 08:23:47;;;;;;;5.07;1.87;;;10.00;99.90;;;;;;5021533;28;20227;-60
2022/05/04 08:26:13;;;;;;;2.77;1.83;;;10.10;99.90;;;;;;5017711;28;20312;-60
2022/05/04 08:28:40;;;;;;;10.87;2.53;;;10.10;99.90;;;;;;5023574;28;20212;-61
2022/05/04 08:31:07;;;;;;;4.70;2.10;;;10.10;99.90;;;;;;4994569;28;23030;-61
2022/05/04 08:33:35;;;;;;;4.20;1.93;;;10.00;99.90;;;;;;5022356;28;20230;-61
2022/05/04 08:36:04;;;;;;;9.13;2.10;;;10.00;99.90;;;;;;5026867;28;20753;-61
2022/05/04 08:38:30;;;;;;;5.40;2.00;;;9.90;99.90;;;;;;5032389;28;20194;-61
2022/05/04 08:40:57;;;;;;;4.10;1.70;;;10.10;99.90;;;;;;5011426;28;20694;-61
2022/05/04 08:43:25;;;;;;;4.77;2.07;;;10.10;99.90;;;;;;5030057;28;20297;-61
2022/05/04 08:45:53;;;;;;;5.60;2.30;;;10.10;99.90;;;;;;5022045;28;20201;-61
2022/05/04 08:48:22;;;;;;;5.83;2.27;;;10.20;99.90;;;;;;5022622;28;20194;-61
2022/05/04 08:50:50;;;;;;;6.33;2.60;;;10.20;99.90;;;;;;5024069;28;21834;-61
2022/05/04 08:53:19;;;;;;;8.03;2.33;;;10.20;99.90;;;;;;5030426;28;20233;-61
2022/05/04 08:55:47;;;;;;;4.80;2.10;;;10.20;99.90;;;;;;5025375;28;20201;-60
2022/05/04 08:58:14;;;;;;;8.67;2.03;;;10.20;99.90;;;;;;5018758;28;20352;-61
2022/05/04 09:00:41;;;;;;;2.47;1.73;;;10.20;99.90;;;;;;5029097;28;20212;-61
2022/05/04 09:03:08;;;;;;;10.03;2.37;;;10.20;99.90;;;;;;5020846;28;20258;-61
2022/05/04 09:05:40;;;;;;;4.37;2.20;;;10.30;99.90;;;;;;5026928;28;20217;-61
2022/05/04 09:08:08;;;;;;;5.00;2.40;;;10.40;99.90;;;;;;5031216;28;20197;-61
2022/05/04 09:10:40;;;;;;;6.40;2.27;;;10.40;99.90;;;;;;5029386;28;20205;-61
2022/05/04 09:13:08;;;;;;;7.53;2.10;;;10.40;99.90;;;;;;5007514;28;20225;-61
2022/05/04 09:15:37;;;;;;;5.53;1.80;;;10.60;99.90;;;;;;5019493;28;20221;-61
2022/05/04 09:18:05;;;;;;;7.10;2.30;;;10.60;99.90;;;;;;5021028;28;20237;-60
2022/05/04 09:20:47;;;;;;;10.67;2.20;;;10.70;99.90;;;;;;5011222;28;20559;-61
2022/05/04 09:23:17;;;;;;;5.73;1.90;;;10.60;99.90;;;;;;5027883;28;20223;-61
2022/05/04 09:25:45;;;;;;;4.50;2.15;;;10.70;99.90;;;;;;5005943;28;20229;-61
2022/05/04 09:28:14;;;;;;;7.82;2.10;;;10.70;99.90;;;;;;5010380;28;20258;-61
2022/05/04 09:30:50;;;;;;;4.75;1.92;;;10.70;99.90;;;;;;5031993;28;20206;-61
2022/05/04 09:33:21;;;;;;;4.18;1.98;;;10.80;99.90;;;;;;5021569;28;20247;-61
2022/05/04 09:35:49;;;;;;;4.88;1.80;;;10.90;99.90;;;;;;5028568;28;20595;-61
2022/05/04 09:46:47;;;;;;;4.90;2.22;;;11.00;99.90;;;;;;5005517;28;20518;-61
2022/05/04 09:49:16;;;;;;;4.43;2.33;;;10.90;99.90;;;;;;5023577;28;20201;-61
2022/05/04 09:51:48;;;;;;;9.55;2.67;;;10.90;99.90;;;;;;5033068;28;20225;-61
2022/05/04 09:54:17;;;;;;;6.07;1.92;;;11.00;99.90;;;;;;5032578;28;20202;-61
2022/05/04 09:56:51;;;;;;;5.13;1.75;;;11.10;99.90;;;;;;5032016;28;20209;-61
2022/05/04 09:59:20;;;;;;;5.55;1.95;;;11.10;99.90;;;;;;5012250;28;20204;-61
2022/05/04 10:01:47;;;;;;;15.23;2.42;;;11.10;99.90;;;;;;5030021;28;20220;-61
2022/05/04 10:04:15;;;;;;;6.95;2.58;;;11.10;99.90;;;;;;5020953;28;20216;-61
2022/05/04 10:06:43;;;;;;;6.65;2.33;;;11.10;99.90;;;;;;5031246;28;20205;-61
2022/05/04 10:09:10;;;;;;;6.57;2.30;;;11.10;99.90;;;;;;5030418;28;20214;-61
2022/05/04 10:11:38;;;;;;;11.03;2.17;;;11.10;99.90;;;;;;5031857;28;20208;-61
2022/05/04 10:14:10;;;;;;;8.88;2.42;;;11.20;99.90;;;;;;5013659;28;20220;-60
2022/05/04 10:16:45;;;;;;;4.93;2.20;;;11.20;99.90;;;;;;5033070;28;20322;-61
2022/05/04 10:19:20;;;;;;;5.97;2.33;;;11.10;99.90;;;;;;5023577;28;20211;-61
2022/05/04 10:21:51;;;;;;;4.97;2.20;;;11.20;99.90;;;;;;5034455;28;20201;-61
2022/05/04 10:24:20;;;;;;;9.05;2.60;;;11.20;99.90;;;;;;5027011;28;20201;-61
2022/05/04 10:26:47;;;;;;;5.22;2.33;;;11.30;99.90;;;;;;5032514;28;20202;-61
2022/05/04 10:32:33;;;;;;;10.38;2.25;;;11.40;99.90;;;;;;5020159;28;20224;-61
2022/05/04 10:35:12;;;;;;;5.75;2.38;;;11.40;99.90;;;;;;5024932;28;20223;-61
2022/05/04 10:38:08;;;;;;;6.88;2.65;;;11.30;99.90;;;;;;5030894;28;20206;-61
2022/05/04 10:40:37;;;;;;;5.20;2.15;;;11.30;99.90;;;;;;5025250;28;20324;-61
2022/05/04 10:43:07;;;;;;;6.82;2.65;;;11.40;99.90;;;;;;5030366;28;20220;-61
2022/05/04 10:45:37;;;;;;;5.45;2.65;;;11.40;99.90;;;;;;4987815;28;20214;-61
2022/05/04 10:48:25;;;;;;;5.65;2.88;;;11.40;99.90;;;;;;5026396;28;20213;-61
2022/05/04 10:50:57;;;;;;;12.05;2.42;;;11.40;99.90;;;;;;4992406;28;20205;-61
2022/05/04 10:53:42;;;;;;;4.10;1.88;;;11.50;99.90;;;;;;5028653;28;20234;-61
2022/05/04 10:56:12;;;;;;;4.97;2.60;;;11.40;99.90;;;;;;5028167;28;20283;-60
2022/05/04 10:58:43;;;;;;;6.97;2.38;;;11.60;99.90;;;;;;5029443;28;20217;-61
2022/05/04 11:01:14;;;;;;;3.78;2.38;;;11.70;99.90;;;;;;5009675;28;20221;-61
2022/05/04 11:03:56;;;;;;;9.18;2.40;;;11.70;99.90;;;;;;5019478;28;20217;-61
2022/05/04 11:06:25;;;;;;;3.95;2.47;;;11.70;99.90;;;;;;5022098;28;20213;-61
2022/05/04 11:08:54;;;;;;;4.45;2.20;;;11.70;99.90;;;;;;5031576;28;20721;-61
2022/05/04 11:11:22;;;;;;;13.10;2.72;;;11.70;99.90;;;;;;5029646;28;20205;-61
2022/05/04 11:13:49;;;;;;;5.22;2.78;;;11.70;99.90;;;;;;5028107;28;20229;-61
2022/05/04 11:16:18;;;;;;;9.05;2.40;;;11.70;99.90;;;;;;5030545;28;20352;-61
2022/05/04 11:18:45;;;;;;;5.63;2.38;;;11.60;99.90;;;;;;5003167;28;20216;-62
2022/05/04 11:21:13;;;;;;;7.78;2.80;;;11.60;99.90;;;;;;5007348;28;20206;-61
2022/05/04 11:23:40;;;;;;;7.50;2.67;;;11.60;99.90;;;;;;5013553;28;21335;-61
2022/05/04 11:26:16;;;;;;;5.28;2.40;;;11.70;99.90;;;;;;5024743;28;20205;-61
2022/05/04 11:28:43;;;;;;;8.32;2.60;;;11.80;99.90;;;;;;5029235;28;20201;-61
2022/05/04 11:31:10;;;;;;;8.85;2.53;;;11.70;99.90;;;;;;5029779;28;20710;-61
2022/05/04 11:33:38;;;;;;;12.15;2.25;;;11.70;99.90;;;;;;5011368;28;20241;-61
2022/05/04 11:36:06;;;;;;;4.75;2.42;;;11.70;99.90;;;;;;5007887;28;20663;-61
2022/05/04 11:38:32;;;;;;;5.25;2.45;;;11.80;99.90;;;;;;5016017;28;20306;-61
2022/05/04 11:41:02;;;;;;;8.38;2.63;;;11.80;99.90;;;;;;5028272;28;20204;-61
2022/05/04 11:43:33;;;;;;;6.35;3.08;;;11.80;99.90;;;;;;5016872;28;20206;-61
2022/05/04 11:46:04;;;;;;;6.28;2.67;;;11.90;99.90;;;;;;5018785;28;20245;-62
2022/05/04 11:48:31;;;;;;;6.07;2.53;;;12.00;99.90;;;;;;5000838;28;20233;-61
2022/05/04 11:51:00;;;;;;;4.97;2.30;;;12.30;99.90;;;;;;5015308;28;20234;-62
2022/05/04 11:53:27;;;;;;;5.28;2.10;;;12.10;99.90;;;;;;5015763;28;20648;-61
2022/05/04 11:55:54;;;;;;;8.85;2.20;;;12.20;99.90;;;;;;5024013;28;20210;-61
2022/05/04 11:58:21;;;;;;;6.15;2.55;;;12.40;99.90;;;;;;5020106;28;20227;-61
2022/05/04 12:00:48;;;;;;;6.22;2.20;;;12.40;99.90;;;;;;5008545;28;20609;-61
2022/05/04 12:03:16;;;;;;;12.77;2.38;;;12.40;99.90;;;;;;4979410;28;20208;-61
2022/05/04 12:05:45;;;;;;;7.30;2.45;;;12.20;99.90;;;;;;5004243;28;20658;-61
2022/05/04 12:08:14;;;;;;;7.80;2.78;;;12.20;99.90;;;;;;5004947;28;20221;-62
2022/05/04 12:10:42;;;;;;;3.95;2.20;;;12.20;99.90;;;;;;5020335;28;20221;-61
2022/05/04 12:13:10;;;;;;;3.30;2.38;;;11.90;99.90;;;;;;5028202;28;20223;-61
2022/05/04 12:15:37;;;;;;;3.80;2.70;;;11.80;99.90;;;;;;5014236;28;20263;-61
2022/05/04 12:18:06;;;;;;;8.10;2.38;;;11.80;99.90;;;;;;5032728;28;20210;-61
2022/05/04 12:20:34;;;;;;;9.43;2.53;;;11.90;99.90;;;;;;5018834;28;20990;-60
2022/05/04 12:23:02;;;;;;;9.82;3.13;;;12.00;99.90;;;;;;5007233;28;20248;-60
2022/05/04 12:25:31;;;;;;;7.18;2.60;;;12.00;99.90;;;;;;5013485;28;20292;-59
2022/05/04 12:27:58;;;;;;;6.35;2.58;;;12.20;99.90;;;;;;5014847;28;20670;-60
2022/05/04 12:33:11;;;;;;;4.47;2.28;;;12.20;99.90;;;;;;5016543;28;20260;-60
2022/05/04 12:35:43;;;;;;;3.92;2.22;;;12.30;99.90;;;;;;4996591;28;20356;-60
2022/05/04 12:38:11;;;;;;;12.27;2.35;;;12.40;99.90;;;;;;4996685;28;21090;-60
2022/05/04 12:40:39;;;;;;;6.55;2.17;;;12.60;99.90;;;;;;5009589;28;20230;-61
2022/05/04 12:43:07;;;;;;;8.98;2.60;;;12.60;99.90;;;;;;5016758;28;20234;-60
2022/05/04 12:45:36;;;;;;;4.75;2.40;;;12.70;99.90;;;;;;5021547;28;20229;-60
2022/05/04 12:48:07;;;;;;;6.93;1.90;;;12.70;99.90;;;;;;5008287;28;20708;-60
2022/05/04 12:50:35;;;;;;;8.25;2.63;;;12.70;99.90;;;;;;5001008;28;20940;-61
2022/05/04 12:53:02;;;;;;;9.52;2.95;;;12.60;99.90;;;;;;5022754;28;20243;-60
2022/05/04 12:58:16;;;;;;;9.40;2.72;;;12.60;99.90;;;;;;5049021;28;20237;-60
2022/05/04 13:00:43;;;;;;;7.32;2.45;;;12.60;99.90;;;;;;5050009;28;20457;-61
2022/05/04 13:03:12;;;;;;;6.80;2.45;;;12.50;99.90;;;;;;5027668;28;20229;-61
2022/05/04 13:05:39;;;;;;;4.22;2.65;;;12.50;99.90;;;;;;5019929;28;20225;-61
2022/05/04 13:08:08;;;;;;;8.95;2.75;;;12.50;99.90;;;;;;5024580;28;22392;-61
2022/05/04 13:10:35;;;;;;;6.15;2.33;;;12.50;99.90;;;;;;5000397;28;20209;-61
2022/05/04 13:13:03;;;;;;;3.95;2.42;;;12.50;99.90;;;;;;5028673;28;20229;-60
2022/05/04 13:15:32;;;;;;;7.13;2.60;;;12.40;99.90;;;;;;5021853;28;20209;-61
2022/05/04 13:17:59;;;;;;;8.65;2.75;;;12.60;99.90;;;;;;5015150;28;20205;-61
2022/05/04 13:20:26;;;;;;;6.03;2.17;;;12.60;99.90;;;;;;5002685;28;20201;-61
2022/05/04 13:22:53;;;;;;;8.40;3.13;;;12.70;99.90;;;;;;5014130;28;20814;-60
2022/05/04 13:25:20;;;;;;;3.20;2.30;;;12.60;99.90;;;;;;5007765;28;20269;-62
2022/05/04 13:27:47;;;;;;;9.15;2.80;;;12.70;99.90;;;;;;4985665;28;20201;-61
2022/05/04 13:30:14;;;;;;;4.45;2.08;;;12.60;99.90;;;;;;5020289;28;20868;-61
2022/05/04 13:32:42;;;;;;;9.57;2.42;;;12.70;99.90;;;;;;4992274;28;20205;-61
2022/05/04 13:35:09;;;;;;;4.72;2.25;;;12.90;99.90;;;;;;5001011;28;20603;-60
2022/05/04 13:37:37;;;;;;;4.88;2.42;;;12.70;99.90;;;;;;4999874;28;20213;-60
2022/05/04 13:40:05;;;;;;;7.43;2.30;;;12.60;99.90;;;;;;5018916;28;20968;-61